createdAt,value
2016-09-05T00:00:51.248Z,1008.33
2016-09-05T00:01:51.890Z,1008.41
2016-09-05T00:02:52.530Z,1008.39
2016-09-05T00:03:53.176Z,1008.38
2016-09-05T00:04:53.821Z,1008.36
2016-09-05T00:05:54.454Z,1008.37
2016-09-05T00:06:55.130Z,1008.37
2016-09-05T00:07:55.805Z,1008.38
2016-09-05T00:08:56.475Z,1008.41
2016-09-05T00:09:57.192Z,1008.43
2016-09-05T00:10:57.826Z,1008.42
2016-09-05T00:11:58.465Z,1008.47
2016-09-05T00:12:59.089Z,1008.47
2016-09-05T00:13:59.710Z,1008.45
2016-09-05T00:15:00.357Z,1008.44
2016-09-05T00:16:01.009Z,1008.43
2016-09-05T00:17:01.660Z,1008.44
2016-09-05T00:18:02.326Z,1008.49
2016-09-05T00:19:03.001Z,1008.51
2016-09-05T00:20:03.656Z,1008.51
2016-09-05T00:21:04.293Z,1008.52
2016-09-05T00:22:04.983Z,1008.57
2016-09-05T00:23:05.631Z,1008.53
2016-09-05T00:24:06.276Z,1008.51
2016-09-05T00:25:06.908Z,1008.54
2016-09-05T00:26:07.551Z,1008.53
2016-09-05T00:27:08.197Z,1008.55
2016-09-05T00:28:08.816Z,1008.56
2016-09-05T00:29:09.457Z,1008.56
2016-09-05T00:30:10.089Z,1008.59
2016-09-05T00:31:10.743Z,1008.57
2016-09-05T00:32:11.384Z,1008.56
2016-09-05T00:33:12.025Z,1008.55
2016-09-05T00:34:12.673Z,1008.61
2016-09-05T00:35:13.326Z,1008.58
2016-09-05T00:36:13.983Z,1008.59
2016-09-05T00:37:14.610Z,1008.59
2016-09-05T00:38:15.252Z,1008.6
2016-09-05T00:39:15.872Z,1008.6
2016-09-05T00:40:16.496Z,1008.6
2016-09-05T00:41:17.155Z,1008.64
2016-09-05T00:42:17.788Z,1008.65
2016-09-05T00:43:18.417Z,1008.68
2016-09-05T00:44:19.072Z,1008.69
2016-09-05T00:45:19.717Z,1008.74
2016-09-05T00:46:20.376Z,1008.78
2016-09-05T00:47:21.007Z,1008.75
2016-09-05T00:48:21.693Z,1008.78
2016-09-05T00:49:22.339Z,1008.85
2016-09-05T00:50:23.008Z,1008.86
2016-09-05T00:51:23.658Z,1008.84
2016-09-05T00:52:24.320Z,1008.85
2016-09-05T00:53:24.959Z,1008.88
2016-09-05T00:54:25.638Z,1008.85
2016-09-05T00:55:26.286Z,1008.88
2016-09-05T00:56:26.925Z,1008.91
2016-09-05T00:57:27.579Z,1008.94
2016-09-05T00:58:28.215Z,1008.95
2016-09-05T00:59:28.875Z,1008.99
2016-09-05T01:00:29.502Z,1008.97
2016-09-05T01:01:30.183Z,1008.99
2016-09-05T01:02:30.828Z,1008.97
2016-09-05T01:03:31.466Z,1008.97
2016-09-05T01:04:32.146Z,1009
2016-09-05T01:05:32.809Z,1008.94
2016-09-05T01:06:33.452Z,1008.99
2016-09-05T01:07:34.088Z,1008.96
2016-09-05T01:08:34.738Z,1009.03
2016-09-05T01:09:35.368Z,1008.99
2016-09-05T01:10:36.016Z,1009.04
2016-09-05T01:11:36.664Z,1009.08
2016-09-05T01:12:37.304Z,1009.11
2016-09-05T01:13:37.928Z,1009.15
2016-09-05T01:14:38.559Z,1009.13
2016-09-05T01:15:39.198Z,1009.15
2016-09-05T01:16:39.842Z,1009.18
2016-09-05T01:17:40.471Z,1009.23
2016-09-05T01:18:41.115Z,1009.24
2016-09-05T01:19:41.753Z,1009.23
2016-09-05T01:20:42.381Z,1009.28
2016-09-05T01:21:43.027Z,1009.26
2016-09-05T01:22:43.677Z,1009.26
2016-09-05T01:23:44.342Z,1009.31
2016-09-05T01:24:44.998Z,1009.36
2016-09-05T01:25:45.674Z,1009.32
2016-09-05T01:26:46.315Z,1009.35
2016-09-05T01:27:46.961Z,1009.35
2016-09-05T01:28:47.588Z,1009.36
2016-09-05T01:29:48.223Z,1009.33
2016-09-05T01:30:48.853Z,1009.31
2016-09-05T01:31:49.526Z,1009.33
2016-09-05T01:32:50.171Z,1009.29
2016-09-05T01:33:50.793Z,1009.32
2016-09-05T01:34:51.410Z,1009.32
2016-09-05T01:35:52.040Z,1009.32
2016-09-05T01:36:52.664Z,1009.29
2016-09-05T01:37:53.301Z,1009.28
2016-09-05T01:38:53.954Z,1009.31
2016-09-05T01:39:54.592Z,1009.34
2016-09-05T01:40:55.241Z,1009.37
2016-09-05T01:41:55.873Z,1009.35
2016-09-05T01:42:56.495Z,1009.35
2016-09-05T01:43:57.115Z,1009.3
2016-09-05T01:44:57.781Z,1009.34
2016-09-05T01:45:58.417Z,1009.33
2016-09-05T01:46:59.068Z,1009.35
2016-09-05T01:47:59.691Z,1009.37
2016-09-05T01:49:00.334Z,1009.39
2016-09-05T01:50:00.978Z,1009.4
2016-09-05T01:51:01.677Z,1009.42
2016-09-05T01:52:02.330Z,1009.47
2016-09-05T01:53:02.968Z,1009.45
2016-09-05T01:54:03.611Z,1009.44
2016-09-05T01:55:04.265Z,1009.49
2016-09-05T01:56:04.934Z,1009.51
2016-09-05T01:57:05.582Z,1009.53
2016-09-05T01:58:06.225Z,1009.56
2016-09-05T01:59:06.870Z,1009.56
2016-09-05T02:00:07.513Z,1009.57
2016-09-05T02:01:08.136Z,1009.65
2016-09-05T02:02:08.823Z,1009.59
2016-09-05T02:03:09.494Z,1009.61
2016-09-05T02:04:10.130Z,1009.57
2016-09-05T02:05:10.760Z,1009.57
2016-09-05T02:06:11.412Z,1009.58
2016-09-05T02:07:12.032Z,1009.58
2016-09-05T02:08:12.703Z,1009.53
2016-09-05T02:09:13.341Z,1009.54
2016-09-05T02:10:13.973Z,1009.54
2016-09-05T02:11:14.596Z,1009.61
2016-09-05T02:12:15.211Z,1009.54
2016-09-05T02:13:15.830Z,1009.63
2016-09-05T02:14:16.455Z,1009.63
2016-09-05T02:15:17.074Z,1009.63
2016-09-05T02:16:17.701Z,1009.68
2016-09-05T02:17:18.326Z,1009.69
2016-09-05T02:18:18.937Z,1009.69
2016-09-05T02:19:19.579Z,1009.67
2016-09-05T02:20:20.201Z,1009.69
2016-09-05T02:21:20.835Z,1009.62
2016-09-05T02:22:21.477Z,1009.7
2016-09-05T02:23:22.115Z,1009.68
2016-09-05T02:24:22.756Z,1009.72
2016-09-05T02:25:23.399Z,1009.71
2016-09-05T02:26:24.035Z,1009.73
2016-09-05T02:27:24.684Z,1009.72
2016-09-05T02:28:25.308Z,1009.77
2016-09-05T02:29:25.954Z,1009.77
2016-09-05T02:30:26.601Z,1009.81
2016-09-05T02:31:27.250Z,1009.77
2016-09-05T02:32:27.878Z,1009.79
2016-09-05T02:33:28.511Z,1009.83
2016-09-05T02:34:29.131Z,1009.82
2016-09-05T02:35:29.755Z,1009.83
2016-09-05T02:36:30.424Z,1009.88
2016-09-05T02:37:31.076Z,1009.9
2016-09-05T02:38:31.740Z,1009.92
2016-09-05T02:39:32.369Z,1009.91
2016-09-05T02:40:32.996Z,1009.92
2016-09-05T02:41:33.602Z,1009.97
2016-09-05T02:42:34.242Z,1009.97
2016-09-05T02:43:34.884Z,1009.98
2016-09-05T02:44:35.540Z,1009.97
2016-09-05T02:45:36.229Z,1009.94
2016-09-05T02:46:36.889Z,1010
2016-09-05T02:47:37.539Z,1010
2016-09-05T02:48:38.183Z,1010.04
2016-09-05T02:49:38.804Z,1010.06
2016-09-05T02:50:39.448Z,1010.08
2016-09-05T02:51:40.096Z,1010.05
2016-09-05T02:52:40.745Z,1010.08
2016-09-05T02:53:41.364Z,1010.03
2016-09-05T02:54:41.984Z,1010.1
2016-09-05T02:55:42.613Z,1010.05
2016-09-05T02:56:43.231Z,1010.08
2016-09-05T02:57:43.872Z,1010.05
2016-09-05T02:58:44.492Z,1010.07
2016-09-05T02:59:45.144Z,1010.08
2016-09-05T03:00:45.799Z,1010.05
2016-09-05T03:01:46.454Z,1010.1
2016-09-05T03:02:47.067Z,1010.12
2016-09-05T03:03:47.706Z,1010.13
2016-09-05T03:04:48.342Z,1010.2
2016-09-05T03:05:48.990Z,1010.15
2016-09-05T03:06:49.637Z,1010.15
2016-09-05T03:07:50.272Z,1010.18
2016-09-05T03:08:50.890Z,1010.18
2016-09-05T03:09:51.512Z,1010.15
2016-09-05T03:10:52.141Z,1010.15
2016-09-05T03:11:52.782Z,1010.15
2016-09-05T03:12:53.407Z,1010.23
2016-09-05T03:13:54.033Z,1010.23
2016-09-05T03:14:54.659Z,1010.21
2016-09-05T03:15:55.276Z,1010.27
2016-09-05T03:16:55.890Z,1010.24
2016-09-05T03:17:56.512Z,1010.24
2016-09-05T03:18:57.131Z,1010.27
2016-09-05T03:19:57.763Z,1010.26
2016-09-05T03:20:58.385Z,1010.28
2016-09-05T03:21:59.002Z,1010.28
2016-09-05T03:22:59.622Z,1010.27
2016-09-05T03:24:00.248Z,1010.3
2016-09-05T03:25:00.872Z,1010.3
2016-09-05T03:26:01.491Z,1010.3
2016-09-05T03:27:02.135Z,1010.32
2016-09-05T03:28:02.776Z,1010.36
2016-09-05T03:29:03.423Z,1010.36
2016-09-05T03:30:04.042Z,1010.37
2016-09-05T03:31:04.674Z,1010.38
2016-09-05T03:32:05.308Z,1010.38
2016-09-05T03:33:05.928Z,1010.43
2016-09-05T03:34:06.561Z,1010.39
2016-09-05T03:35:07.195Z,1010.44
2016-09-05T03:36:07.840Z,1010.44
2016-09-05T03:37:08.477Z,1010.49
2016-09-05T03:38:09.096Z,1010.49
2016-09-05T03:39:09.715Z,1010.47
2016-09-05T03:40:10.337Z,1010.55
2016-09-05T03:41:10.972Z,1010.51
2016-09-05T03:42:11.586Z,1010.53
2016-09-05T03:43:12.265Z,1010.5
2016-09-05T03:44:12.924Z,1010.54
2016-09-05T03:45:13.549Z,1010.58
2016-09-05T03:46:14.159Z,1010.64
2016-09-05T03:47:14.817Z,1010.59
2016-09-05T03:48:15.476Z,1010.63
2016-09-05T03:49:16.116Z,1010.62
2016-09-05T03:50:16.767Z,1010.66
2016-09-05T03:51:17.401Z,1010.66
2016-09-05T03:52:18.030Z,1010.63
2016-09-05T03:53:18.674Z,1010.66
2016-09-05T03:54:19.326Z,1010.67
2016-09-05T03:55:19.971Z,1010.65
2016-09-05T03:56:20.619Z,1010.72
2016-09-05T03:57:21.265Z,1010.7
2016-09-05T03:58:21.931Z,1010.74
2016-09-05T03:59:22.581Z,1010.75
2016-09-05T04:00:23.214Z,1010.77
2016-09-05T04:01:23.852Z,1010.8
2016-09-05T04:02:24.478Z,1010.82
2016-09-05T04:03:25.129Z,1010.85
2016-09-05T04:04:25.755Z,1010.9
2016-09-05T04:05:26.401Z,1010.89
2016-09-05T04:06:27.038Z,1010.96
2016-09-05T04:07:27.665Z,1010.96
2016-09-05T04:08:28.296Z,1011.01
2016-09-05T04:09:28.936Z,1011.04
2016-09-05T04:10:29.572Z,1011.07
2016-09-05T04:11:30.203Z,1011.07
2016-09-05T04:12:30.836Z,1011.1
2016-09-05T04:13:31.480Z,1011.08
2016-09-05T04:14:32.125Z,1011.09
2016-09-05T04:15:32.779Z,1011.12
2016-09-05T04:16:33.418Z,1011.18
2016-09-05T04:17:34.051Z,1011.17
2016-09-05T04:18:34.680Z,1011.2
2016-09-05T04:19:35.321Z,1011.25
2016-09-05T04:20:35.952Z,1011.24
2016-09-05T04:21:36.583Z,1011.26
2016-09-05T04:22:37.224Z,1011.28
2016-09-05T04:23:37.876Z,1011.31
2016-09-05T04:24:38.519Z,1011.28
2016-09-05T04:25:39.174Z,1011.27
2016-09-05T04:26:39.819Z,1011.32
2016-09-05T04:27:40.462Z,1011.34
2016-09-05T04:28:41.112Z,1011.37
2016-09-05T04:29:41.753Z,1011.38
2016-09-05T04:30:42.387Z,1011.42
2016-09-05T04:31:43.053Z,1011.42
2016-09-05T04:32:43.699Z,1011.47
2016-09-05T04:33:44.339Z,1011.48
2016-09-05T04:34:44.990Z,1011.51
2016-09-05T04:35:45.648Z,1011.55
2016-09-05T04:36:46.306Z,1011.57
2016-09-05T04:37:46.975Z,1011.57
2016-09-05T04:38:47.613Z,1011.61
2016-09-05T04:39:48.246Z,1011.59
2016-09-05T04:40:48.913Z,1011.61
2016-09-05T04:41:49.546Z,1011.66
2016-09-05T04:42:50.237Z,1011.67
2016-09-05T04:43:50.905Z,1011.67
2016-09-05T04:44:51.545Z,1011.7
2016-09-05T04:45:52.171Z,1011.73
2016-09-05T04:46:52.834Z,1011.72
2016-09-05T04:47:53.483Z,1011.75
2016-09-05T04:48:54.131Z,1011.78
2016-09-05T04:49:54.787Z,1011.79
2016-09-05T04:50:55.408Z,1011.8
2016-09-05T04:51:56.055Z,1011.84
2016-09-05T04:52:56.710Z,1011.84
2016-09-05T04:53:57.356Z,1011.9
2016-09-05T04:54:58.004Z,1011.93
2016-09-05T04:55:58.621Z,1011.91
2016-09-05T04:56:59.240Z,1011.9
2016-09-05T04:57:59.901Z,1011.92
2016-09-05T04:59:00.585Z,1011.99
2016-09-05T05:00:01.231Z,1012
2016-09-05T05:01:01.907Z,1012
2016-09-05T05:02:02.548Z,1012.02
2016-09-05T05:03:03.180Z,1012.05
2016-09-05T05:04:03.821Z,1012.05
2016-09-05T05:05:04.467Z,1012.09
2016-09-05T05:06:05.116Z,1012.1
2016-09-05T05:07:05.753Z,1012.09
2016-09-05T05:08:06.462Z,1012.08
2016-09-05T05:09:07.133Z,1012.12
2016-09-05T05:10:07.771Z,1012.13
2016-09-05T05:11:08.430Z,1012.15
2016-09-05T05:12:09.060Z,1012.16
2016-09-05T05:13:09.701Z,1012.17
2016-09-05T05:14:10.358Z,1012.22
2016-09-05T05:15:11.002Z,1012.21
2016-09-05T05:16:11.632Z,1012.25
2016-09-05T05:17:12.269Z,1012.29
2016-09-05T05:18:12.908Z,1012.3
2016-09-05T05:19:13.554Z,1012.31
2016-09-05T05:20:14.178Z,1012.3
2016-09-05T05:21:14.824Z,1012.34
2016-09-05T05:22:15.478Z,1012.34
2016-09-05T05:23:16.133Z,1012.34
2016-09-05T05:24:16.762Z,1012.36
2016-09-05T05:25:17.419Z,1012.39
2016-09-05T05:26:18.053Z,1012.37
2016-09-05T05:27:18.699Z,1012.39
2016-09-05T05:28:19.336Z,1012.35
2016-09-05T05:29:19.974Z,1012.39
2016-09-05T05:30:20.623Z,1012.38
2016-09-05T05:31:21.268Z,1012.4
2016-09-05T05:32:21.906Z,1012.39
2016-09-05T05:33:22.569Z,1012.39
2016-09-05T05:34:23.205Z,1012.47
2016-09-05T05:35:23.868Z,1012.44
2016-09-05T05:36:24.495Z,1012.43
2016-09-05T05:37:25.130Z,1012.46
2016-09-05T05:38:25.770Z,1012.46
2016-09-05T05:39:26.417Z,1012.47
2016-09-05T05:40:27.062Z,1012.48
2016-09-05T05:41:27.707Z,1012.51
2016-09-05T05:42:28.372Z,1012.51
2016-09-05T05:43:29.029Z,1012.51
2016-09-05T05:44:29.660Z,1012.53
2016-09-05T05:45:30.328Z,1012.55
2016-09-05T05:46:30.970Z,1012.58
2016-09-05T05:47:31.638Z,1012.54
2016-09-05T05:48:32.263Z,1012.57
2016-09-05T05:49:32.932Z,1012.59
2016-09-05T05:50:33.598Z,1012.59
2016-09-05T05:51:34.265Z,1012.56
2016-09-05T05:52:34.939Z,1012.6
2016-09-05T05:53:35.570Z,1012.58
2016-09-05T05:54:36.203Z,1012.62
2016-09-05T05:55:36.868Z,1012.62
2016-09-05T05:56:37.515Z,1012.63
2016-09-05T05:57:38.152Z,1012.63
2016-09-05T05:58:38.812Z,1012.68
2016-09-05T05:59:39.442Z,1012.65
2016-09-05T06:00:40.080Z,1012.73
2016-09-05T06:01:40.977Z,1012.72
2016-09-05T06:02:41.634Z,1012.74
2016-09-05T06:03:42.261Z,1012.76
2016-09-05T06:04:42.906Z,1012.81
2016-09-05T06:05:43.561Z,1012.81
2016-09-05T06:06:44.218Z,1012.8
2016-09-05T06:07:44.899Z,1012.8
2016-09-05T06:08:45.469Z,1012.85
2016-09-05T06:09:46.117Z,1012.87
2016-09-05T06:10:46.763Z,1012.86
2016-09-05T06:11:47.393Z,1012.89
2016-09-05T06:12:48.045Z,1012.83
2016-09-05T06:13:48.689Z,1012.87
2016-09-05T06:14:49.352Z,1012.85
2016-09-05T06:15:50.002Z,1012.86
2016-09-05T06:16:50.628Z,1012.9
2016-09-05T06:17:51.247Z,1012.89
2016-09-05T06:18:51.948Z,1012.9
2016-09-05T06:19:52.588Z,1012.92
2016-09-05T06:20:53.227Z,1012.95
2016-09-05T06:21:53.915Z,1012.99
2016-09-05T06:22:54.569Z,1013.02
2016-09-05T06:23:55.181Z,1013.07
2016-09-05T06:24:55.807Z,1013.02
2016-09-05T06:25:56.439Z,1013.06
2016-09-05T06:26:57.073Z,1013.08
2016-09-05T06:27:57.703Z,1013.05
2016-09-05T06:28:58.356Z,1013.09
2016-09-05T06:29:59.004Z,1013.09
2016-09-05T06:30:59.632Z,1013.12
2016-09-05T06:32:00.314Z,1013.14
2016-09-05T06:33:00.940Z,1013.18
2016-09-05T06:34:01.592Z,1013.24
2016-09-05T06:35:02.233Z,1013.27
2016-09-05T06:36:02.853Z,1013.28
2016-09-05T06:37:03.497Z,1013.27
2016-09-05T06:38:04.135Z,1013.28
2016-09-05T06:39:04.812Z,1013.29
2016-09-05T06:40:05.496Z,1013.34
2016-09-05T06:41:06.205Z,1013.32
2016-09-05T06:42:06.864Z,1013.31
2016-09-05T06:43:07.491Z,1013.32
2016-09-05T06:44:08.284Z,1013.34
2016-09-05T06:45:08.917Z,1013.4
2016-09-05T06:46:09.586Z,1013.43
2016-09-05T06:47:10.244Z,1013.43
2016-09-05T06:48:10.869Z,1013.45
2016-09-05T06:49:11.515Z,1013.47
2016-09-05T06:50:12.137Z,1013.49
2016-09-05T06:51:12.775Z,1013.51
2016-09-05T06:52:13.433Z,1013.49
2016-09-05T06:53:14.073Z,1013.51
2016-09-05T06:54:14.718Z,1013.54
2016-09-05T06:55:15.369Z,1013.57
2016-09-05T06:56:16.016Z,1013.57
2016-09-05T06:57:16.642Z,1013.54
2016-09-05T06:58:17.311Z,1013.57
2016-09-05T06:59:17.956Z,1013.57
2016-09-05T07:00:18.602Z,1013.59
2016-09-05T07:01:19.244Z,1013.6
2016-09-05T07:02:19.910Z,1013.62
2016-09-05T07:03:20.541Z,1013.64
2016-09-05T07:04:21.157Z,1013.62
2016-09-05T07:05:21.793Z,1013.68
2016-09-05T07:06:22.458Z,1013.68
2016-09-05T07:07:23.145Z,1013.66
2016-09-05T07:08:23.750Z,1013.63
2016-09-05T07:09:24.432Z,1013.67
2016-09-05T07:10:25.106Z,1013.65
2016-09-05T07:11:25.749Z,1013.72
2016-09-05T07:12:26.394Z,1013.73
2016-09-05T07:13:27.026Z,1013.74
2016-09-05T07:14:27.680Z,1013.77
2016-09-05T07:15:28.288Z,1013.77
2016-09-05T07:16:28.924Z,1013.74
2016-09-05T07:17:29.536Z,1013.81
2016-09-05T07:18:30.157Z,1013.84
2016-09-05T07:19:30.808Z,1013.82
2016-09-05T07:20:31.441Z,1013.83
2016-09-05T07:21:32.086Z,1013.86
2016-09-05T07:22:32.724Z,1013.88
2016-09-05T07:23:33.371Z,1013.89
2016-09-05T07:24:34.213Z,1013.92
2016-09-05T07:25:35.631Z,1013.94
2016-09-05T07:26:36.453Z,1013.94
2016-09-05T07:27:37.098Z,1013.97
2016-09-05T07:28:37.743Z,1014
2016-09-05T07:29:38.397Z,1014.03
2016-09-05T07:30:39.021Z,1014.04
2016-09-05T07:31:39.666Z,1014.05
2016-09-05T07:32:40.308Z,1014.06
2016-09-05T07:33:40.939Z,1014.1
2016-09-05T07:34:41.585Z,1014.16
2016-09-05T07:35:42.243Z,1014.18
2016-09-05T07:36:42.930Z,1014.16
2016-09-05T07:37:43.572Z,1014.21
2016-09-05T07:38:44.207Z,1014.24
2016-09-05T07:39:44.874Z,1014.23
2016-09-05T07:40:45.534Z,1014.28
2016-09-05T07:41:46.185Z,1014.3
2016-09-05T07:42:46.830Z,1014.27
2016-09-05T07:43:47.461Z,1014.34
2016-09-05T07:44:48.104Z,1014.32
2016-09-05T07:45:48.751Z,1014.38
2016-09-05T07:46:49.386Z,1014.41
2016-09-05T07:47:50.022Z,1014.43
2016-09-05T07:48:50.680Z,1014.45
2016-09-05T07:49:51.330Z,1014.48
2016-09-05T07:50:51.981Z,1014.5
2016-09-05T07:51:52.626Z,1014.53
2016-09-05T07:52:53.249Z,1014.56
2016-09-05T07:53:53.883Z,1014.58
2016-09-05T07:54:54.528Z,1014.65
2016-09-05T07:55:55.174Z,1014.67
2016-09-05T07:56:55.812Z,1014.68
2016-09-05T07:57:56.455Z,1014.68
2016-09-05T07:58:57.080Z,1014.74
2016-09-05T07:59:57.715Z,1014.75
2016-09-05T08:00:58.357Z,1014.71
2016-09-05T08:01:58.985Z,1014.77
2016-09-05T08:02:59.600Z,1014.76
2016-09-05T08:04:00.219Z,1014.78
2016-09-05T08:05:00.858Z,1014.82
2016-09-05T08:06:01.488Z,1014.83
2016-09-05T08:07:02.164Z,1014.88
2016-09-05T08:08:02.812Z,1014.92
2016-09-05T08:09:03.455Z,1014.87
2016-09-05T08:10:04.085Z,1014.92
2016-09-05T08:11:04.725Z,1014.91
2016-09-05T08:12:05.363Z,1014.95
2016-09-05T08:13:06.002Z,1014.93
2016-09-05T08:14:06.619Z,1014.93
2016-09-05T08:15:07.258Z,1015.01
2016-09-05T08:16:07.885Z,1014.95
2016-09-05T08:17:08.514Z,1014.98
2016-09-05T08:18:09.149Z,1015.05
2016-09-05T08:19:09.798Z,1015.04
2016-09-05T08:20:10.434Z,1015.06
2016-09-05T08:21:11.075Z,1015.07
2016-09-05T08:22:11.710Z,1015.12
2016-09-05T08:23:12.355Z,1015.1
2016-09-05T08:24:13.003Z,1015.11
2016-09-05T08:25:13.644Z,1015.12
2016-09-05T08:26:14.266Z,1015.17
2016-09-05T08:27:14.894Z,1015.13
2016-09-05T08:28:15.541Z,1015.13
2016-09-05T08:29:16.178Z,1015.1
2016-09-05T08:30:16.820Z,1015.1
2016-09-05T08:31:17.454Z,1015.1
2016-09-05T08:32:18.074Z,1015.19
2016-09-05T08:33:18.696Z,1015.2
2016-09-05T08:34:19.344Z,1015.24
2016-09-05T08:35:19.988Z,1015.23
2016-09-05T08:36:20.616Z,1015.26
2016-09-05T08:37:21.261Z,1015.26
2016-09-05T08:38:21.901Z,1015.28
2016-09-05T08:39:22.533Z,1015.28
2016-09-05T08:40:23.173Z,1015.29
2016-09-05T08:41:23.829Z,1015.31
2016-09-05T08:42:24.458Z,1015.35
2016-09-05T08:43:25.081Z,1015.36
2016-09-05T08:44:25.710Z,1015.35
2016-09-05T08:45:26.352Z,1015.4
2016-09-05T08:46:26.979Z,1015.44
2016-09-05T08:47:27.617Z,1015.45
2016-09-05T08:48:28.241Z,1015.48
2016-09-05T08:49:28.893Z,1015.41
2016-09-05T08:50:29.554Z,1015.51
2016-09-05T08:51:30.193Z,1015.53
2016-09-05T08:52:30.839Z,1015.63
2016-09-05T08:53:31.494Z,1015.59
2016-09-05T08:54:32.155Z,1015.53
2016-09-05T08:55:32.800Z,1015.51
2016-09-05T08:56:34.173Z,1015.5
2016-09-05T08:57:34.805Z,1015.49
2016-09-05T08:58:35.463Z,1015.51
2016-09-05T08:59:36.095Z,1015.56
2016-09-05T09:00:36.718Z,1015.57
2016-09-05T09:01:37.360Z,1015.57
2016-09-05T09:02:38.025Z,1015.6
2016-09-05T09:03:38.684Z,1015.64
2016-09-05T09:04:39.349Z,1015.62
2016-09-05T09:05:39.992Z,1015.63
2016-09-05T09:06:40.642Z,1015.69
2016-09-05T09:07:41.295Z,1015.72
2016-09-05T09:08:41.951Z,1015.71
2016-09-05T09:09:42.629Z,1015.75
2016-09-05T09:10:43.264Z,1015.78
2016-09-05T09:11:43.919Z,1015.77
2016-09-05T09:12:44.569Z,1015.71
2016-09-05T09:13:45.361Z,1015.86
2016-09-05T09:14:46.058Z,1015.9
2016-09-05T09:15:46.725Z,1015.85
2016-09-05T09:16:47.411Z,1015.82
2016-09-05T09:17:48.050Z,1015.8
2016-09-05T09:18:48.708Z,1015.81
2016-09-05T09:19:49.345Z,1015.74
2016-09-05T09:20:50.000Z,1015.74
2016-09-05T09:21:50.635Z,1015.81
2016-09-05T09:22:51.263Z,1015.79
2016-09-05T09:23:51.915Z,1015.83
2016-09-05T09:24:52.590Z,1015.89
2016-09-05T09:25:53.219Z,1015.88
2016-09-05T09:26:53.863Z,1015.88
2016-09-05T09:27:54.499Z,1015.88
2016-09-05T09:28:55.156Z,1015.95
2016-09-05T09:29:55.792Z,1015.96
2016-09-05T09:30:56.438Z,1016.02
2016-09-05T09:31:57.065Z,1016
2016-09-05T09:32:57.729Z,1016.05
2016-09-05T09:33:58.385Z,1016.04
2016-09-05T09:34:59.029Z,1016.01
2016-09-05T09:35:59.681Z,1016.07
2016-09-05T09:37:00.310Z,1016.11
2016-09-05T09:38:00.953Z,1016.15
2016-09-05T09:39:01.596Z,1016.21
2016-09-05T09:40:02.217Z,1016.23
2016-09-05T09:41:02.842Z,1016.27
2016-09-05T09:42:03.501Z,1016.24
2016-09-05T09:43:04.141Z,1016.24
2016-09-05T09:44:04.760Z,1016.24
2016-09-05T09:45:05.403Z,1016.24
2016-09-05T09:46:06.073Z,1016.21
2016-09-05T09:47:06.713Z,1016.23
2016-09-05T09:48:07.339Z,1016.23
2016-09-05T09:49:08.015Z,1016.21
2016-09-05T09:50:08.665Z,1016.21
2016-09-05T09:51:09.305Z,1016.21
2016-09-05T09:52:09.940Z,1016.18
2016-09-05T09:53:10.582Z,1016.2
2016-09-05T09:54:11.217Z,1016.23
2016-09-05T09:55:11.861Z,1016.22
2016-09-05T09:56:12.515Z,1016.25
2016-09-05T09:57:13.155Z,1016.26
2016-09-05T09:58:13.810Z,1016.32
2016-09-05T09:59:14.470Z,1016.31
2016-09-05T10:00:15.112Z,1016.31
2016-09-05T10:01:15.742Z,1016.34
2016-09-05T10:02:16.422Z,1016.31
2016-09-05T10:03:17.080Z,1016.31
2016-09-05T10:04:17.723Z,1016.35
2016-09-05T10:05:18.360Z,1016.37
2016-09-05T10:06:19.003Z,1016.36
2016-09-05T10:07:19.608Z,1016.43
2016-09-05T10:08:20.239Z,1016.46
2016-09-05T10:09:20.867Z,1016.46
2016-09-05T10:10:21.506Z,1016.44
2016-09-05T10:11:22.145Z,1016.47
2016-09-05T10:12:22.790Z,1016.48
2016-09-05T10:13:23.440Z,1016.52
2016-09-05T10:14:24.138Z,1016.49
2016-09-05T10:15:24.822Z,1016.52
2016-09-05T10:16:25.464Z,1016.49
2016-09-05T10:17:26.103Z,1016.48
2016-09-05T10:18:26.757Z,1016.48
2016-09-05T10:19:27.395Z,1016.5
2016-09-05T10:20:28.051Z,1016.51
2016-09-05T10:21:28.711Z,1016.5
2016-09-05T10:22:29.356Z,1016.48
2016-09-05T10:23:30.025Z,1016.56
2016-09-05T10:24:30.682Z,1016.61
2016-09-05T10:25:31.324Z,1016.6
2016-09-05T10:26:31.992Z,1016.63
2016-09-05T10:27:32.657Z,1016.62
2016-09-05T10:28:33.290Z,1016.68
2016-09-05T10:29:33.961Z,1016.64
2016-09-05T10:30:34.606Z,1016.68
2016-09-05T10:31:35.256Z,1016.66
2016-09-05T10:32:35.911Z,1016.67
2016-09-05T10:33:36.547Z,1016.66
2016-09-05T10:34:37.192Z,1016.68
2016-09-05T10:35:37.809Z,1016.73
2016-09-05T10:36:38.432Z,1016.74
2016-09-05T10:37:39.093Z,1016.81
2016-09-05T10:38:39.855Z,1016.83
2016-09-05T10:39:40.489Z,1016.83
2016-09-05T10:40:41.141Z,1016.83
2016-09-05T10:41:41.811Z,1016.84
2016-09-05T10:42:42.441Z,1016.91
2016-09-05T10:43:43.083Z,1016.96
2016-09-05T10:44:43.724Z,1016.91
2016-09-05T10:45:44.357Z,1016.93
2016-09-05T10:46:45.010Z,1016.91
2016-09-05T10:47:45.646Z,1016.97
2016-09-05T10:48:46.283Z,1016.99
2016-09-05T10:49:46.908Z,1016.99
2016-09-05T10:50:47.528Z,1017.04
2016-09-05T10:51:48.177Z,1017.04
2016-09-05T10:52:48.803Z,1017.08
2016-09-05T10:53:49.455Z,1017.06
2016-09-05T10:54:50.082Z,1017.11
2016-09-05T10:55:50.711Z,1017.15
2016-09-05T10:56:51.362Z,1017.12
2016-09-05T10:57:52.008Z,1017.14
2016-09-05T10:58:52.651Z,1017.17
2016-09-05T10:59:53.286Z,1017.17
2016-09-05T11:00:53.946Z,1017.19
2016-09-05T11:01:54.581Z,1017.19
2016-09-05T11:02:55.227Z,1017.18
2016-09-05T11:03:55.847Z,1017.21
2016-09-05T11:04:56.496Z,1017.26
2016-09-05T11:05:57.127Z,1017.25
2016-09-05T11:06:57.767Z,1017.26
2016-09-05T11:07:58.403Z,1017.23
2016-09-05T11:08:59.025Z,1017.27
2016-09-05T11:09:59.654Z,1017.26
2016-09-05T11:11:00.307Z,1017.29
2016-09-05T11:12:00.976Z,1017.29
2016-09-05T11:13:01.622Z,1017.29
2016-09-05T11:14:02.271Z,1017.3
2016-09-05T11:15:02.912Z,1017.34
2016-09-05T11:16:03.537Z,1017.34
2016-09-05T11:17:04.160Z,1017.38
2016-09-05T11:18:04.790Z,1017.36
2016-09-05T11:19:05.478Z,1017.34
2016-09-05T11:20:06.139Z,1017.35
2016-09-05T11:21:06.777Z,1017.35
2016-09-05T11:22:07.419Z,1017.38
2016-09-05T11:23:08.041Z,1017.39
2016-09-05T11:24:08.730Z,1017.39
2016-09-05T11:25:09.667Z,1017.39
2016-09-05T11:26:10.307Z,1017.4
2016-09-05T11:27:10.953Z,1017.41
2016-09-05T11:28:11.712Z,1017.4
2016-09-05T11:29:12.346Z,1017.37
2016-09-05T11:30:13.006Z,1017.41
2016-09-05T11:31:13.698Z,1017.43
2016-09-05T11:32:14.349Z,1017.45
2016-09-05T11:33:15.019Z,1017.48
2016-09-05T11:34:15.655Z,1017.46
2016-09-05T11:35:16.291Z,1017.49
2016-09-05T11:36:16.938Z,1017.49
2016-09-05T11:37:17.613Z,1017.49
2016-09-05T11:38:18.287Z,1017.45
2016-09-05T11:39:18.965Z,1017.51
2016-09-05T11:40:19.663Z,1017.56
2016-09-05T11:41:20.309Z,1017.58
2016-09-05T11:42:20.975Z,1017.61
2016-09-05T11:43:21.606Z,1017.6
2016-09-05T11:44:22.282Z,1017.59
2016-09-05T11:45:22.938Z,1017.63
2016-09-05T11:46:23.593Z,1017.63
2016-09-05T11:47:24.242Z,1017.66
2016-09-05T11:48:24.925Z,1017.66
2016-09-05T11:49:25.586Z,1017.7
2016-09-05T11:50:26.235Z,1017.7
2016-09-05T11:51:26.855Z,1017.72
2016-09-05T11:52:27.499Z,1017.73
2016-09-05T11:53:28.291Z,1017.79
2016-09-05T11:54:28.946Z,1017.8
2016-09-05T11:55:29.654Z,1017.78
2016-09-05T11:56:30.306Z,1017.85
2016-09-05T11:57:30.939Z,1017.82
2016-09-05T11:58:31.576Z,1017.81
2016-09-05T11:59:32.214Z,1017.81
2016-09-05T12:00:32.890Z,1017.85
2016-09-05T12:01:33.543Z,1017.89
2016-09-05T12:02:34.170Z,1017.92
2016-09-05T12:03:34.817Z,1017.95
2016-09-05T12:04:35.467Z,1017.93
2016-09-05T12:05:36.114Z,1017.96
2016-09-05T12:06:36.760Z,1018.03
2016-09-05T12:07:37.464Z,1018.07
2016-09-05T12:08:38.144Z,1018.03
2016-09-05T12:09:38.776Z,1018.05
2016-09-05T12:10:39.423Z,1018.09
2016-09-05T12:11:40.071Z,1018.09
2016-09-05T12:12:40.721Z,1018.13
2016-09-05T12:13:41.375Z,1018.14
2016-09-05T12:14:42.006Z,1018.17
2016-09-05T12:15:42.654Z,1018.21
2016-09-05T12:16:43.294Z,1018.18